Time;durP1;ratioP1;P1;durP2;ratioP2;P2;SDS_P1;SDS_P2;PMS_P1;PMS_P2;Temp;Humidity;BMP_temperature;BMP_pressure;BME280_temperature;BME280_humidity;BME280_pressure;Samples;Min_cycle;Max_cycle;Signal;HPM_P1;HPM_P2
2022/10/24 00:01:11;;;;;;;7.30;4.93;;;;;;;13.43;89.62;101775.16;2100086;28;20199;-73
2022/10/24 00:02:33;;;;;;;8.07;5.13;;;;;;;13.42;90.02;101773.34;2102769;28;20048;-72
2022/10/24 00:03:56;;;;;;;8.23;5.20;;;;;;;13.41;90.37;101774.22;2096521;28;20508;-73
2022/10/24 00:05:19;;;;;;;8.55;5.32;;;;;;;13.39;90.47;101780.38;2091543;28;20032;-72
2022/10/24 00:06:41;;;;;;;6.63;4.45;;;;;;;13.40;90.42;101776.81;2091817;28;20101;-73
2022/10/24 00:08:03;;;;;;;9.10;5.20;;;;;;;13.39;90.52;101780.38;2100192;28;20612;-73
2022/10/24 00:09:25;;;;;;;8.07;5.18;;;;;;;13.38;90.44;101783.88;2102041;28;20491;-73
2022/10/24 00:10:50;;;;;;;7.03;4.82;;;;;;;13.37;90.91;101782.97;2102505;28;20090;-73
2022/10/24 00:12:12;;;;;;;6.55;4.43;;;;;;;13.38;91.03;101778.56;2102901;28;20053;-73
2022/10/24 00:13:34;;;;;;;8.18;4.55;;;;;;;13.37;91.32;101776.78;2094115;28;20147;-72
2022/10/24 00:14:56;;;;;;;9.40;5.03;;;;;;;13.35;91.47;101779.41;2099764;28;20411;-73
2022/10/24 00:16:19;;;;;;;8.18;4.85;;;;;;;13.36;91.86;101780.28;2095587;28;20086;-73
2022/10/24 00:17:42;;;;;;;7.25;5.20;;;;;;;13.35;92.13;101784.69;2101780;28;20040;-73
2022/10/24 00:19:05;;;;;;;7.00;5.32;;;;;;;13.32;92.55;101782.00;2093463;28;20045;-73
2022/10/24 00:20:26;;;;;;;7.55;5.32;;;;;;;13.33;92.59;101782.84;2093552;28;20040;-73
2022/10/24 00:21:49;;;;;;;9.05;5.32;;;;;;;13.31;93.12;101776.66;2091359;28;20084;-73
2022/10/24 00:23:12;;;;;;;7.90;5.60;;;;;;;13.32;93.72;101783.75;2099720;28;20143;-72
2022/10/24 00:24:34;;;;;;;8.90;5.30;;;;;;;13.35;94.22;101778.50;2093657;28;20048;-73
2022/10/24 00:26:00;;;;;;;7.97;5.20;;;;;;;13.37;94.72;101772.38;2091082;28;20052;-72
2022/10/24 00:27:22;;;;;;;8.00;4.97;;;;;;;13.40;95.02;101775.06;2092539;28;20056;-72
2022/10/24 00:28:45;;;;;;;8.75;5.32;;;;;;;13.41;95.23;101774.22;2093762;28;20075;-73
2022/10/24 00:30:09;;;;;;;8.68;5.10;;;;;;;13.41;95.18;101774.22;2093355;28;20059;-72
2022/10/24 00:31:32;;;;;;;8.73;5.32;;;;;;;13.42;95.25;101773.34;2094085;28;20052;-73
2022/10/24 00:32:54;;;;;;;9.80;5.43;;;;;;;13.39;95.50;101769.75;2102471;28;20040;-72
2022/10/24 00:34:17;;;;;;;7.88;5.32;;;;;;;13.39;95.71;101772.41;2102275;28;20043;-73
2022/10/24 00:35:38;;;;;;;10.60;5.25;;;;;;;13.38;95.89;101773.28;2096526;28;20247;-73
2022/10/24 00:37:02;;;;;;;9.13;5.10;;;;;;;13.38;95.99;101774.16;2099517;28;20040;-73
2022/10/24 00:38:25;;;;;;;8.60;5.40;;;;;;;13.36;95.99;101775.88;2102319;28;20543;-73
2022/10/24 00:39:46;;;;;;;11.35;5.80;;;;;;;13.35;96.07;101774.09;2096154;28;20032;-73
2022/10/24 00:41:14;;;;;;;8.30;5.25;;;;;;;13.34;96.38;101771.41;2099300;28;20456;-73
2022/10/24 00:42:35;;;;;;;9.00;5.30;;;;;;;13.31;96.81;101764.28;2094583;28;20076;-73
2022/10/24 00:44:15;;;;;;;9.13;5.85;;;;;;;13.31;97.23;101769.59;2101268;28;20051;-73
2022/10/24 00:45:44;;;;;;;9.05;5.47;;;;;;;13.31;97.44;101772.25;2096155;28;20450;-73
2022/10/24 00:47:10;;;;;;;9.05;5.35;;;;;;;13.30;97.75;101770.47;2096454;28;20063;-73
2022/10/24 00:48:36;;;;;;;7.35;4.97;;;;;;;13.32;98.00;101762.53;2100605;28;20060;-72
2022/10/24 00:50:03;;;;;;;9.25;5.70;;;;;;;13.31;98.18;101766.94;2103002;28;20051;-72
2022/10/24 00:51:28;;;;;;;8.15;5.75;;;;;;;13.28;98.21;101763.31;2102859;28;20044;-72
2022/10/24 00:52:50;;;;;;;10.02;5.78;;;;;;;13.27;98.44;101759.78;2094012;28;20060;-73
2022/10/24 00:54:15;;;;;;;8.27;5.47;;;;;;;13.27;98.80;101765.06;2099715;28;20105;-73
2022/10/24 00:55:37;;;;;;;8.82;5.85;;;;;;;13.27;99.20;101770.38;2096171;28;20045;-72
2022/10/24 00:57:07;;;;;;;9.43;5.97;;;;;;;13.28;99.32;101766.88;2094450;28;20511;-73
2022/10/24 00:58:33;;;;;;;9.15;5.70;;;;;;;13.26;99.70;101773.88;2103221;28;20051;-73
2022/10/24 00:59:59;;;;;;;7.65;5.47;;;;;;;13.26;99.85;101767.72;2094035;28;20101;-72
2022/10/24 01:01:22;;;;;;;8.65;6.03;;;;;;;13.25;100.00;101772.13;2096611;28;20476;-73
2022/10/24 01:02:43;;;;;;;8.23;6.03;;;;;;;13.25;100.00;101773.88;2093862;28;20097;-72
2022/10/24 01:04:07;;;;;;;8.80;6.05;;;;;;;13.26;100.00;101763.28;2091291;28;20449;-73
2022/10/24 01:05:36;;;;;;;8.50;5.70;;;;;;;13.26;100.00;101765.06;2091427;28;20040;-73
2022/10/24 01:07:10;;;;;;;10.77;6.10;;;;;;;13.25;100.00;101760.63;2100993;28;20591;-72
2022/10/24 01:08:39;;;;;;;9.15;5.93;;;;;;;13.24;100.00;101765.03;2096463;28;20106;-73
2022/10/24 01:10:24;;;;;;;8.80;5.88;;;;;;;13.24;100.00;101766.78;2094470;28;20052;-74
2022/10/24 01:12:02;;;;;;;11.02;5.80;;;;;;;13.24;100.00;101769.44;2096107;28;20082;-73
2022/10/24 01:13:42;;;;;;;8.85;5.60;;;;;;;13.24;100.00;101766.78;2090816;28;20170;-73
2022/10/24 01:15:09;;;;;;;10.43;6.32;;;;;;;13.21;100.00;101770.25;2104124;28;20518;-73
2022/10/24 01:16:41;;;;;;;8.55;6.10;;;;;;;13.21;100.00;101754.34;2094417;28;20056;-73
2022/10/24 01:18:11;;;;;;;9.00;6.00;;;;;;;13.21;100.00;101750.78;2102224;28;20464;-73
2022/10/24 01:20:00;;;;;;;7.72;5.55;;;;;;;13.20;100.00;101752.53;2104814;28;20078;-73
2022/10/24 01:21:30;;;;;;;11.05;6.78;;;;;;;13.19;100.00;101758.75;2111308;28;20146;-72
2022/10/24 01:23:03;;;;;;;10.57;5.93;;;;;;;13.20;100.00;101759.59;2100583;28;20052;-73
2022/10/24 01:24:42;;;;;;;10.30;6.50;;;;;;;13.18;100.00;101750.75;2089571;28;20444;-73
2022/10/24 01:26:23;;;;;;;12.60;7.22;;;;;;;13.17;100.00;101757.81;2104366;28;20541;-73
2022/10/24 01:27:59;;;;;;;9.95;7.32;;;;;;;13.18;100.00;101753.41;2104103;28;20043;-73
2022/10/24 01:29:44;;;;;;;11.75;8.30;;;;;;;13.20;100.00;101749.00;2104020;28;20558;-73
2022/10/24 01:31:11;;;;;;;9.15;7.18;;;;;;;13.22;100.00;101753.47;2096289;28;20041;-73
2022/10/24 01:32:41;;;;;;;8.73;6.40;;;;;;;13.22;100.00;101753.47;2099371;28;20043;-72
2022/10/24 01:34:08;;;;;;;9.93;7.25;;;;;;;13.21;100.00;101757.00;2103211;28;20130;-72
2022/10/24 01:35:39;;;;;;;11.15;6.82;;;;;;;13.22;100.00;101752.59;2102163;28;20043;-72
2022/10/24 01:37:08;;;;;;;10.57;6.88;;;;;;;13.22;100.00;101758.78;2094604;28;20093;-73
2022/10/24 01:38:35;;;;;;;9.48;6.68;;;;;;;13.20;100.00;101754.31;2093721;28;20044;-72
2022/10/24 01:40:01;;;;;;;8.13;5.63;;;;;;;13.20;100.00;101757.84;2100892;28;20484;-72
2022/10/24 01:41:28;;;;;;;8.98;6.57;;;;;;;13.22;100.00;101763.19;2102695;28;20483;-72
2022/10/24 01:42:54;;;;;;;9.65;6.55;;;;;;;13.22;100.00;101756.13;2102319;28;20493;-72
2022/10/24 01:44:22;;;;;;;11.25;7.50;;;;;;;13.22;100.00;101758.78;2102286;28;20036;-72
2022/10/24 01:45:51;;;;;;;10.02;6.93;;;;;;;13.20;100.00;101757.84;2102742;28;20669;-72
2022/10/24 01:47:18;;;;;;;10.75;7.22;;;;;;;13.20;100.00;101756.94;2104422;28;20127;-72
2022/10/24 01:48:46;;;;;;;10.50;7.63;;;;;;;13.21;100.00;101761.41;2093934;28;20037;-73
2022/10/24 01:50:12;;;;;;;10.23;7.40;;;;;;;13.21;100.00;101758.75;2094238;28;20056;-72
2022/10/24 01:51:37;;;;;;;10.90;7.60;;;;;;;13.23;100.00;101763.22;2094212;28;20041;-72
2022/10/24 01:52:59;;;;;;;10.93;6.47;;;;;;;13.24;100.00;101761.47;2099494;28;20044;-72
2022/10/24 01:54:22;;;;;;;12.00;6.95;;;;;;;13.25;100.00;101771.22;2093281;28;20128;-72
2022/10/24 01:55:44;;;;;;;9.98;7.50;;;;;;;13.24;100.00;101751.75;2099016;28;20044;-72
2022/10/24 01:57:07;;;;;;;10.25;6.32;;;;;;;13.25;100.00;101766.81;2102032;28;20055;-72
2022/10/24 01:58:29;;;;;;;9.98;5.95;;;;;;;13.25;100.00;101760.63;2096068;28;20052;-72
2022/10/24 01:59:51;;;;;;;10.00;6.15;;;;;;;13.24;100.00;101762.38;2099614;28;20515;-74
2022/10/24 02:01:21;;;;;;;11.55;6.43;;;;;;;13.24;100.00;101759.72;2093820;28;20060;-72
2022/10/24 02:02:45;;;;;;;9.02;5.80;;;;;;;13.25;100.00;101763.28;2092259;28;20443;-72
2022/10/24 02:04:12;;;;;;;8.80;5.97;;;;;;;13.23;100.00;101763.22;2091399;28;20052;-73
2022/10/24 02:05:38;;;;;;;13.40;6.97;;;;;;;13.24;100.00;101762.38;2100599;28;20044;-73
2022/10/24 02:07:02;;;;;;;10.07;6.47;;;;;;;13.25;100.00;101761.53;2093967;28;20129;-73
2022/10/24 02:08:29;;;;;;;12.05;6.10;;;;;;;13.29;100.00;101760.69;2097009;28;20071;-73
2022/10/24 02:09:57;;;;;;;11.45;6.70;;;;;;;13.32;100.00;101763.44;2093601;28;20674;-73
2022/10/24 02:11:19;;;;;;;9.85;6.05;;;;;;;13.33;100.00;101765.19;2092185;28;20053;-73
2022/10/24 02:12:45;;;;;;;11.23;6.07;;;;;;;13.34;100.00;101758.13;2085213;28;20241;-72
2022/10/24 02:14:13;;;;;;;10.27;6.32;;;;;;;13.32;100.00;101763.44;2086537;28;20088;-73
2022/10/24 02:15:41;;;;;;;9.95;6.82;;;;;;;13.30;100.00;101762.50;2092853;28;20639;-73
2022/10/24 02:17:06;;;;;;;12.02;7.03;;;;;;;13.28;100.00;101761.56;2088938;28;20040;-73
2022/10/24 02:18:30;;;;;;;9.00;6.20;;;;;;;13.26;100.00;101773.88;2099786;28;20546;-72
2022/10/24 02:19:53;;;;;;;9.10;6.22;;;;;;;13.24;100.00;101765.03;2088531;28;20045;-72
2022/10/24 02:21:23;;;;;;;9.27;6.32;;;;;;;13.23;100.00;101765.88;2099608;28;20044;-73
2022/10/24 02:22:49;;;;;;;8.02;5.57;;;;;;;13.22;100.00;101763.19;2103919;28;20085;-73
2022/10/24 02:24:17;;;;;;;9.60;6.63;;;;;;;13.23;100.00;101772.94;2102096;28;20102;-72
2022/10/24 02:25:43;;;;;;;11.82;7.00;;;;;;;13.22;100.00;101765.84;2095765;28;20052;-74
2022/10/24 02:27:10;;;;;;;9.40;6.32;;;;;;;13.22;100.00;101771.16;2100504;28;20142;-72
2022/10/24 02:28:37;;;;;;;9.98;6.00;;;;;;;13.19;100.00;101769.34;2094102;28;20064;-73
2022/10/24 02:30:04;;;;;;;10.25;6.05;;;;;;;13.18;100.00;101775.50;2102815;28;20609;-74
2022/10/24 02:31:33;;;;;;;9.82;6.10;;;;;;;13.16;100.00;101767.50;2101914;28;20047;-72
2022/10/24 02:33:00;;;;;;;10.93;6.38;;;;;;;13.14;100.00;101771.88;2104467;28;20044;-72
2022/10/24 02:34:24;;;;;;;14.90;6.63;;;;;;;13.13;100.00;101772.72;2094168;28;20102;-73
2022/10/24 02:35:47;;;;;;;13.18;6.43;;;;;;;13.13;100.00;101771.84;2105804;28;20392;-73
2022/10/24 02:37:12;;;;;;;10.27;6.57;;;;;;;13.14;100.00;101768.31;2095854;28;20095;-73
2022/10/24 02:38:37;;;;;;;11.23;6.55;;;;;;;13.16;100.00;101771.91;2091210;28;20144;-73
2022/10/24 02:40:00;;;;;;;9.82;6.45;;;;;;;13.18;100.00;101775.50;2090378;28;20411;-72
2022/10/24 02:41:27;;;;;;;9.00;5.90;;;;;;;13.17;100.00;101773.72;2102303;28;20056;-73
2022/10/24 02:42:54;;;;;;;9.25;6.00;;;;;;;13.14;100.00;101768.31;2102794;28;20052;-73
2022/10/24 02:44:18;;;;;;;9.80;6.28;;;;;;;13.14;100.00;101766.56;2111279;28;20483;-73
2022/10/24 02:45:41;;;;;;;9.38;6.63;;;;;;;13.14;100.00;101760.38;2097095;28;20098;-73
2022/10/24 02:47:06;;;;;;;9.82;6.55;;;;;;;13.13;100.00;101762.13;2100740;28;20098;-73
2022/10/24 02:48:36;;;;;;;9.52;6.03;;;;;;;13.12;100.00;101764.75;2103566;28;20079;-73
2022/10/24 02:49:57;;;;;;;12.20;6.65;;;;;;;13.09;100.00;101762.00;2096006;28;20551;-73
2022/10/24 02:51:23;;;;;;;10.18;6.13;;;;;;;13.08;100.00;101762.88;2094955;28;20048;-73
2022/10/24 02:52:45;;;;;;;10.95;6.82;;;;;;;13.06;100.00;101770.78;2098474;28;20047;-73
2022/10/24 02:54:07;;;;;;;;;;;;;;;13.03;100.00;101767.19;2103634;28;20072;-72
2022/10/24 02:55:29;;;;;;;;;;;;;;;12.99;100.00;101768.88;2098273;28;19920;-73
2022/10/24 02:56:56;;;;;;;8.55;5.57;;;;;;;12.99;100.00;101768.00;2110614;28;19919;-75
2022/10/24 02:58:18;;;;;;;7.70;6.15;;;;;;;13.01;100.00;101771.53;2097279;28;20063;-73
2022/10/24 02:59:41;;;;;;;10.95;6.68;;;;;;;13.01;100.00;101776.84;2094561;28;20101;-74
2022/10/24 03:01:04;;;;;;;8.38;5.93;;;;;;;13.01;100.00;101774.19;2089213;28;20520;-71
2022/10/24 03:02:27;;;;;;;9.85;6.63;;;;;;;12.99;100.00;101778.59;2086690;28;20048;-71
2022/10/24 03:03:50;;;;;;;11.38;6.60;;;;;;;12.99;100.00;101778.59;2092403;28;20045;-72
2022/10/24 03:05:13;;;;;;;11.68;6.50;;;;;;;12.97;100.00;101772.34;2096607;28;20599;-72
2022/10/24 03:06:36;;;;;;;8.80;6.22;;;;;;;12.97;100.00;101775.91;2103003;28;20083;-72
2022/10/24 03:07:59;;;;;;;10.25;6.90;;;;;;;12.97;100.00;101786.50;2102783;28;20439;-72
2022/10/24 03:09:20;;;;;;;10.32;6.47;;;;;;;12.97;100.00;101783.84;2105830;28;20388;-72
2022/10/24 03:10:42;;;;;;;11.68;6.88;;;;;;;12.95;100.00;101782.00;2103176;28;20044;-72
2022/10/24 03:12:06;;;;;;;11.65;7.00;;;;;;;12.94;100.00;101781.13;2086308;28;20068;-72
2022/10/24 03:13:27;;;;;;;11.30;6.82;;;;;;;12.94;100.00;101780.22;2089596;28;20083;-73
2022/10/24 03:14:50;;;;;;;10.50;6.28;;;;;;;12.95;100.00;101782.00;2092373;28;20048;-73
2022/10/24 03:16:12;;;;;;;12.38;6.70;;;;;;;12.95;100.00;101785.56;2100363;28;20035;-72
2022/10/24 03:17:35;;;;;;;11.65;7.50;;;;;;;12.97;100.00;101783.84;2094615;28;20048;-73
2022/10/24 03:18:59;;;;;;;8.90;6.22;;;;;;;12.99;100.00;101790.09;2100404;28;20044;-73
2022/10/24 03:20:23;;;;;;;10.32;7.00;;;;;;;13.01;100.00;101791.00;2101553;28;20079;-73
2022/10/24 03:21:44;;;;;;;11.63;6.32;;;;;;;13.01;100.00;101790.09;2094837;28;20063;-73
2022/10/24 03:23:08;;;;;;;9.50;6.75;;;;;;;13.00;100.00;101785.66;2090075;28;20049;-73
2022/10/24 03:24:29;;;;;;;11.02;6.72;;;;;;;12.99;100.00;101791.84;2109098;28;20044;-72
2022/10/24 03:25:51;;;;;;;8.88;6.68;;;;;;;12.98;100.00;101790.03;2105250;28;20052;-72
2022/10/24 03:27:13;;;;;;;14.00;7.60;;;;;;;12.98;100.00;101792.69;2094440;28;20032;-73
2022/10/24 03:28:36;;;;;;;10.05;6.93;;;;;;;12.99;100.00;101794.50;2100033;28;20063;-71
2022/10/24 03:29:59;;;;;;;11.27;6.80;;;;;;;12.98;100.00;101795.34;2097286;28;20458;-72
2022/10/24 03:31:21;;;;;;;10.77;7.13;;;;;;;12.99;100.00;101797.16;2100496;28;20052;-72
2022/10/24 03:32:42;;;;;;;10.82;7.22;;;;;;;12.99;100.00;101795.38;2100448;28;20304;-72
2022/10/24 03:34:07;;;;;;;13.65;7.63;;;;;;;13.01;100.00;101798.06;2094158;28;20450;-73
2022/10/24 03:35:28;;;;;;;10.98;7.40;;;;;;;13.01;100.00;101798.06;2100339;28;20995;-72
2022/10/24 03:36:51;;;;;;;12.82;7.70;;;;;;;13.01;100.00;101803.34;2102331;28;20048;-72
2022/10/24 03:38:12;;;;;;;11.88;7.82;;;;;;;13.03;100.00;101799.00;2105692;28;20047;-72
2022/10/24 03:39:35;;;;;;;12.07;7.05;;;;;;;13.04;100.00;101799.03;2097089;28;20101;-72
2022/10/24 03:40:56;;;;;;;12.10;7.05;;;;;;;13.07;100.00;101787.56;2100082;28;20458;-72
2022/10/24 03:42:19;;;;;;;12.10;6.88;;;;;;;13.09;100.00;101791.16;2096911;28;20072;-73
2022/10/24 03:43:40;;;;;;;9.73;6.70;;;;;;;13.14;100.00;101794.84;2091929;28;20048;-72
2022/10/24 03:45:03;;;;;;;10.20;7.63;;;;;;;13.16;100.00;101793.13;2091232;28;20443;-72
2022/10/24 03:46:24;;;;;;;12.05;7.43;;;;;;;13.19;100.00;101794.97;2100401;28;20052;-72
2022/10/24 03:47:47;;;;;;;12.10;9.00;;;;;;;13.23;100.00;101792.41;2102927;28;20044;-72
2022/10/24 03:49:09;;;;;;;12.63;8.50;;;;;;;13.26;100.00;101797.75;2097064;28;20048;-73
2022/10/24 03:50:33;;;;;;;12.45;7.93;;;;;;;13.29;100.00;101799.59;2094688;28;20048;-73
2022/10/24 03:51:54;;;;;;;11.98;8.25;;;;;;;13.32;100.00;101800.56;2097177;28;20446;-74
2022/10/24 03:53:17;;;;;;;12.18;7.78;;;;;;;13.35;100.00;101799.72;2096374;28;20076;-73
2022/10/24 03:54:39;;;;;;;13.70;8.57;;;;;;;13.40;100.00;101801.59;2105588;28;20032;-72
2022/10/24 03:56:02;;;;;;;13.13;9.05;;;;;;;13.46;100.00;101803.47;2101273;28;20101;-72
2022/10/24 03:57:23;;;;;;;13.88;8.02;;;;;;;13.51;100.00;101801.84;2102716;28;20052;-73
2022/10/24 03:58:46;;;;;;;16.27;8.40;;;;;;;13.54;100.00;101794.81;2111011;28;20070;-73
2022/10/24 04:00:08;;;;;;;11.82;7.00;;;;;;;13.55;100.00;101798.38;2105331;28;20048;-73
2022/10/24 04:01:31;;;;;;;10.88;8.05;;;;;;;13.53;100.00;101794.78;2105283;28;20109;-73
2022/10/24 04:02:53;;;;;;;12.23;7.10;;;;;;;13.48;100.00;101796.44;2105338;28;20548;-73
2022/10/24 04:04:17;;;;;;;14.55;7.32;;;;;;;13.45;100.00;101796.41;2102793;28;20048;-73
2022/10/24 04:05:40;;;;;;;11.52;6.85;;;;;;;13.41;100.00;101792.78;2094529;28;20108;-73
2022/10/24 04:07:01;;;;;;;14.50;7.65;;;;;;;13.42;100.00;101788.38;2094575;28;20139;-73
2022/10/24 04:08:23;;;;;;;10.57;7.10;;;;;;;13.44;100.00;101784.00;2099968;28;20054;-73
2022/10/24 04:09:45;;;;;;;13.68;8.13;;;;;;;13.43;100.00;101782.22;2094017;28;20187;-73
2022/10/24 04:11:08;;;;;;;14.13;7.95;;;;;;;13.50;100.00;101785.00;2094555;28;20535;-73
2022/10/24 04:12:30;;;;;;;13.10;7.82;;;;;;;13.61;100.00;101782.56;2088907;28;20090;-73
2022/10/24 04:13:53;;;;;;;15.50;7.60;;;;;;;13.64;100.00;101779.97;2083295;28;20161;-73
2022/10/24 04:15:16;;;;;;;12.27;7.65;;;;;;;13.64;100.00;101787.94;2092867;28;20146;-73
2022/10/24 04:16:38;;;;;;;10.20;7.18;;;;;;;13.60;100.00;101788.72;2102401;28;20051;-73
2022/10/24 04:18:00;;;;;;;11.07;7.20;;;;;;;13.56;100.00;101778.94;2093937;28;20119;-73
2022/10/24 04:19:24;;;;;;;11.18;7.38;;;;;;;13.60;100.00;101779.88;2099755;28;20040;-73
2022/10/24 04:20:47;;;;;;;15.27;8.38;;;;;;;13.64;100.00;101781.75;2102293;28;20055;-73
2022/10/24 04:22:10;;;;;;;16.35;8.60;;;;;;;13.67;100.00;101781.78;2102624;28;20040;-73
2022/10/24 04:23:37;;;;;;;15.77;8.50;;;;;;;13.67;100.00;101781.78;2101959;28;20440;-72
2022/10/24 04:24:59;;;;;;;16.98;7.75;;;;;;;13.69;100.00;101778.31;2094842;28;20052;-73
2022/10/24 04:26:21;;;;;;;11.65;7.78;;;;;;;13.74;100.00;101783.69;2091411;28;20059;-73
2022/10/24 04:27:44;;;;;;;16.05;8.40;;;;;;;13.79;100.00;101787.31;2100078;28;20138;-73
2022/10/24 04:29:07;;;;;;;13.63;7.85;;;;;;;13.76;100.00;101789.94;2085787;28;20064;-73
2022/10/24 04:30:29;;;;;;;10.43;6.82;;;;;;;13.76;100.00;101787.28;2088716;28;20124;-73
2022/10/24 04:31:52;;;;;;;11.18;7.13;;;;;;;13.84;100.00;101790.97;2100367;28;20048;-72
2022/10/24 04:33:14;;;;;;;15.73;9.35;;;;;;;13.90;100.00;101791.09;2094056;28;20097;-73
2022/10/24 04:34:38;;;;;;;14.45;8.10;;;;;;;13.95;100.00;101795.63;2091416;28;20053;-73
2022/10/24 04:36:00;;;;;;;12.90;8.18;;;;;;;13.97;100.00;101795.66;2092066;28;20044;-73
2022/10/24 04:37:22;;;;;;;15.90;8.25;;;;;;;13.96;100.00;101804.47;2107678;28;20621;-73
2022/10/24 04:38:45;;;;;;;18.15;9.07;;;;;;;13.98;100.00;101795.66;2096633;28;20071;-73
2022/10/24 04:40:07;;;;;;;18.42;9.23;;;;;;;14.03;100.00;101792.22;2083582;28;20056;-74
2022/10/24 04:41:30;;;;;;;14.93;8.27;;;;;;;14.05;100.00;101796.66;2089038;28;20060;-74
2022/10/24 04:42:52;;;;;;;15.80;10.00;;;;;;;14.10;100.00;101799.41;2102392;28;20114;-73
2022/10/24 04:44:14;;;;;;;16.65;9.65;;;;;;;14.20;100.00;101796.03;2104825;28;20218;-73
2022/10/24 04:45:37;;;;;;;19.00;10.27;;;;;;;14.32;100.00;101802.47;2101954;28;20052;-72
2022/10/24 04:47:00;;;;;;;15.10;9.25;;;;;;;14.42;100.00;101802.66;2094188;28;20028;-73
2022/10/24 04:48:21;;;;;;;14.98;9.88;;;;;;;14.50;100.00;101806.34;2091551;28;20814;-73
2022/10/24 04:49:45;;;;;;;16.20;9.70;;;;;;;14.55;100.00;101802.00;2091083;28;20605;-73
2022/10/24 04:51:06;;;;;;;15.35;9.65;;;;;;;14.60;100.00;101806.50;2091790;28;20047;-73
2022/10/24 04:52:29;;;;;;;20.33;11.93;;;;;;;14.65;100.00;101810.13;2099696;28;20060;-73
2022/10/24 04:53:52;;;;;;;20.40;11.32;;;;;;;14.72;100.00;101809.34;2102268;28;20097;-73
2022/10/24 04:55:14;;;;;;;16.17;10.25;;;;;;;14.78;100.00;101813.88;2102542;28;20089;-73
2022/10/24 04:56:36;;;;;;;18.98;10.43;;;;;;;14.80;100.00;101812.13;2102410;28;20518;-73
2022/10/24 04:57:59;;;;;;;17.52;10.88;;;;;;;14.81;100.00;101816.59;2102186;28;20040;-73
2022/10/24 04:59:20;;;;;;;17.75;10.52;;;;;;;14.80;100.00;101817.44;2102488;28;20054;-73
2022/10/24 05:00:45;;;;;;;16.10;9.73;;;;;;;14.74;100.00;101814.69;2093729;28;20052;-73
2022/10/24 05:02:08;;;;;;;17.08;9.60;;;;;;;14.69;100.00;101816.41;2091915;28;20143;-73
2022/10/24 05:03:30;;;;;;;15.27;8.82;;;;;;;14.70;100.00;101820.84;2094047;28;20488;-73
2022/10/24 05:04:55;;;;;;;16.52;10.57;;;;;;;14.77;100.00;101822.69;2094136;28;20393;-72
2022/10/24 05:06:17;;;;;;;16.10;9.45;;;;;;;14.82;100.00;101825.44;2096015;28;20090;-73
2022/10/24 05:07:41;;;;;;;16.33;10.25;;;;;;;14.84;100.00;101824.59;2091390;28;20048;-73
2022/10/24 05:09:03;;;;;;;18.30;10.38;;;;;;;14.88;100.00;101821.13;2091319;28;20074;-73
2022/10/24 05:10:26;;;;;;;16.77;8.88;;;;;;;14.93;100.00;101818.53;2093892;28;20099;-72
2022/10/24 05:11:47;;;;;;;16.50;9.63;;;;;;;14.94;100.00;101825.63;2096442;28;20049;-73
2022/10/24 05:13:10;;;;;;;21.17;10.82;;;;;;;14.95;100.00;101827.44;2098757;28;20147;-73
2022/10/24 05:14:33;;;;;;;18.70;9.50;;;;;;;14.94;100.00;101830.94;2104857;28;20569;-73
2022/10/24 05:15:55;;;;;;;16.73;9.15;;;;;;;14.94;100.00;101830.94;2102336;28;20542;-73
2022/10/24 05:17:18;;;;;;;15.70;9.82;;;;;;;14.95;100.00;101835.41;2093327;28;20045;-72
2022/10/24 05:18:40;;;;;;;22.17;10.32;;;;;;;14.99;100.00;101834.56;2102002;28;20770;-72
2022/10/24 05:20:06;;;;;;;16.73;9.20;;;;;;;15.02;100.00;101832.88;2102571;28;20109;-72
2022/10/24 05:21:28;;;;;;;16.75;9.90;;;;;;;15.03;100.00;101839.94;2102193;28;20043;-73
2022/10/24 05:22:51;;;;;;;14.25;8.80;;;;;;;15.05;100.00;101846.19;2104702;28;20047;-73
2022/10/24 05:24:13;;;;;;;15.90;9.82;;;;;;;15.08;100.00;101851.56;2096502;28;20067;-73
2022/10/24 05:25:36;;;;;;;17.88;9.85;;;;;;;15.13;100.00;101849.84;2091159;28;20089;-72
2022/10/24 05:26:58;;;;;;;17.58;10.20;;;;;;;15.18;100.00;101841.94;2107344;28;20054;-73
2022/10/24 05:28:20;;;;;;;15.43;9.38;;;;;;;15.24;100.00;101838.47;2104757;28;20047;-72
2022/10/24 05:29:42;;;;;;;16.90;10.48;;;;;;;15.28;100.00;101848.28;2102004;28;20048;-73
2022/10/24 05:31:05;;;;;;;21.08;9.40;;;;;;;15.28;100.00;101845.63;2096425;28;20028;-73
2022/10/24 05:32:27;;;;;;;18.50;9.98;;;;;;;15.26;100.00;101839.38;2091413;28;20056;-73
2022/10/24 05:33:50;;;;;;;21.98;9.10;;;;;;;15.26;100.00;101855.34;2099097;28;20484;-73
2022/10/24 05:35:17;;;;;;;22.38;9.73;;;;;;;15.30;100.00;101843.88;2093491;28;20059;-73
2022/10/24 05:36:40;;;;;;;20.10;9.98;;;;;;;15.41;100.00;101844.91;2108525;28;20075;-73
2022/10/24 05:38:02;;;;;;;16.55;9.48;;;;;;;15.56;100.00;101847.78;2096271;28;20476;-73
2022/10/24 05:39:23;;;;;;;16.15;9.07;;;;;;;15.75;100.00;101847.13;2088257;28;20053;-73
2022/10/24 05:40:48;;;;;;;11.75;8.80;;;;;;;15.95;100.00;101847.38;2098831;28;20090;-73
2022/10/24 05:42:11;;;;;;;13.00;8.98;;;;;;;16.24;100.00;101858.34;2102076;28;20054;-73
2022/10/24 05:43:33;;;;;;;15.35;8.20;;;;;;;16.45;100.00;101855.91;2101569;28;20480;-72
2022/10/24 05:44:54;;;;;;;14.55;7.90;;;;;;;16.67;100.00;101863.22;2101983;28;20112;-72
2022/10/24 05:46:17;;;;;;;11.75;8.02;;;;;;;16.87;100.00;101859.84;2093706;28;20056;-72
2022/10/24 05:47:40;;;;;;;14.82;7.40;;;;;;;17.08;100.00;101862.63;2082503;28;20085;-72
2022/10/24 05:49:02;;;;;;;14.00;7.35;;;;;;;17.26;100.00;101867.22;2097138;28;20141;-74
2022/10/24 05:50:28;;;;;;;16.55;8.18;;;;;;;17.43;100.00;101870.84;2101452;28;20040;-73
2022/10/24 05:51:51;;;;;;;11.73;7.72;;;;;;;17.57;100.00;101871.81;2093132;28;20056;-73
2022/10/24 05:53:13;;;;;;;16.48;7.90;;;;;;;17.72;100.00;101876.38;2090805;28;20044;-72
2022/10/24 05:54:36;;;;;;;16.35;7.90;;;;;;;17.88;100.00;101864.84;2101440;28;20127;-73
2022/10/24 05:55:59;;;;;;;11.23;6.40;;;;;;;18.05;100.00;101867.59;2093250;28;20504;-72
2022/10/24 05:57:21;;;;;;;15.52;7.60;;;;;;;18.21;100.00;101875.63;2090619;28;20037;-73
2022/10/24 05:58:44;;;;;;;17.63;7.45;;;;;;;18.40;100.00;101865.88;2090654;28;20483;-72
2022/10/24 06:00:09;;;;;;;15.07;7.53;;;;;;;18.58;100.00;101868.56;2099114;28;20060;-74
2022/10/24 06:01:35;;;;;;;11.82;7.28;;;;;;;18.77;100.00;101871.28;2102349;28;20094;-72
2022/10/24 06:02:58;;;;;;;12.23;6.63;;;;;;;18.95;100.00;101877.50;2100950;28;20056;-73
2022/10/24 06:04:21;;;;;;;11.95;6.88;;;;;;;19.11;100.00;101873.00;2093047;28;20037;-73
2022/10/24 06:05:45;;;;;;;10.10;5.40;;;;;;;19.28;100.00;101868.53;2107824;28;20086;-73
2022/10/24 06:07:07;;;;;;;14.00;6.80;;;;;;;19.44;100.00;101866.69;2096113;28;20048;-73
2022/10/24 06:08:30;;;;;;;16.95;6.20;;;;;;;19.61;100.00;101867.56;2098612;28;20048;-74
2022/10/24 06:09:52;;;;;;;10.82;5.70;;;;;;;19.76;100.00;101875.53;2089278;28;20095;-74
2022/10/24 06:11:15;;;;;;;12.40;5.40;;;;;;;19.85;100.00;101871.91;2091623;28;20075;-74
2022/10/24 06:12:37;;;;;;;12.75;5.55;;;;;;;19.94;100.00;101866.53;2106951;28;20043;-73
2022/10/24 06:14:00;;;;;;;13.05;5.35;;;;;;;20.06;100.00;101862.88;2096286;28;20048;-74
2022/10/24 06:15:22;;;;;;;8.73;4.88;;;;;;;20.24;100.00;101868.13;2094582;28;20115;-74
2022/10/24 06:16:44;;;;;;;11.88;5.35;;;;;;;20.40;100.00;101874.31;2101820;28;20056;-74
2022/10/24 06:18:07;;;;;;;13.27;4.72;;;;;;;20.52;100.00;101875.13;2102614;28;20450;-74
2022/10/24 06:19:29;;;;;;;9.48;4.82;;;;;;;20.64;100.00;101869.66;2099733;28;20052;-74
2022/10/24 06:20:54;;;;;;;11.32;4.00;;;;;;;20.78;100.00;101872.22;2095093;28;20446;-74
2022/10/24 06:22:16;;;;;;;7.30;3.70;;;;;;;20.92;100.00;101873.00;2095379;28;20052;-74
2022/10/24 06:23:39;;;;;;;9.48;3.63;;;;;;;21.06;100.00;101872.88;2108264;28;20044;-74
2022/10/24 06:25:00;;;;;;;12.93;5.28;;;;;;;21.17;100.00;101872.78;2106229;28;20102;-74
2022/10/24 06:26:23;;;;;;;6.55;4.05;;;;;;;21.29;100.00;101876.22;2095156;28;20102;-74